^^
Station Historical Data
Daily Summary for April 16, 2018 Units:  English    Metric   Both
« Previous Day
Next Day »
Daily Weekly Monthly Yearly Custom
  High: Low: Average:
Temperature: TemperatureF °F 34.8 °F 45 °F
Dew Point: DewpointF °F 33.0 °F 41.7 °F
Humidity: Humidity% 73% 88%
Wind Speed: WindSpeedMPHmph 0.0mph 3.2mph
Wind Gust: WindSpeedGustMPHmph - -
Wind- - South
Pressure: PressureIn in 29.44 in -
Precipitation: 3.47 in    
Historical Graphs
 
 
Tabular Data for April 16, 2018
Time Temperature Dew Point Pressure Wind Wind Speed Wind Gust Humidity Rainfall Rate (Hourly) Conditions
TemperatureF °F DewpointF °F PressureIn in Calm     Humidity% HourlyPrecipIn in Conditions
00:04 34.8 °F 33.0 °F 30.18 in NE 2.0 mph 9.0 mph 93% 0.02 in -RA
00:19 34.8 °F 33.0 °F 30.17 in ESE 1.0 mph 8.0 mph 93% 0.01 in -RA
00:34 34.9 °F 33.1 °F 30.17 in SW 2.0 mph 15.0 mph 93% 0.01 in -RA
00:49 35.0 °F 33.2 °F 30.16 in NW 3.0 mph 10.0 mph 93% 0.00 in -RA
01:04 35.1 °F 33.3 °F 30.15 in WNW 2.0 mph 14.0 mph 93% 0.00 in -RA
01:19 35.2 °F 33.4 °F 30.13 in NW 2.0 mph 15.0 mph 93% 0.00 in -RA
01:34 35.2 °F 33.6 °F 30.12 in WSW 2.0 mph 12.0 mph 94% 0.04 in -RA
01:49 35.3 °F 33.7 °F 30.11 in NNW 2.0 mph 10.0 mph 94% 0.01 in -RA
02:04 35.5 °F 33.9 °F 30.10 in ENE 1.0 mph 13.0 mph 94% 0.02 in -RA
02:19 35.5 °F 33.9 °F 30.08 in West 1.0 mph 10.0 mph 94% 0.02 in -RA
02:34 35.6 °F 34.0 °F 30.07 in North 3.0 mph 10.0 mph 94% 0.02 in -RA
02:49 35.7 °F 34.1 °F 30.05 in ENE 1.0 mph 12.0 mph 94% 0.02 in -RA
03:04 35.9 °F 34.3 °F 30.04 in ENE 2.0 mph 14.0 mph 94% 0.01 in -RA
03:19 36.0 °F 34.4 °F 30.01 in NNE 2.0 mph 15.0 mph 94% 0.06 in -RA
03:34 36.1 °F 34.5 °F 30.01 in NW 1.0 mph 14.0 mph 94% 0.01 in -RA
03:49 36.2 °F 34.6 °F 30.00 in NNW 3.0 mph 12.0 mph 94% 0.05 in -RA
04:04 36.4 °F 34.8 °F 30.00 in SE 3.0 mph 17.0 mph 94% 0.01 in RA
04:19 36.5 °F 34.9 °F 29.98 in SE 5.0 mph 17.0 mph 94% 0.03 in RA
04:34 36.7 °F 35.1 °F 29.96 in NW 2.0 mph 16.0 mph 94% 0.05 in RA
04:49 36.9 °F 35.3 °F 29.94 in ENE 2.0 mph 18.0 mph 94% 0.02 in RA
05:04 37.1 °F 35.5 °F 29.92 in ENE 6.0 mph 17.0 mph 94% 0.00 in OVC
05:19 37.3 °F 35.7 °F 29.90 in East 2.0 mph 14.0 mph 94% 0.01 in RA
05:34 37.6 °F 36.0 °F 29.90 in ENE 5.0 mph 18.0 mph 94% 0.05 in RA
05:49 37.8 °F 36.5 °F 29.89 in North 5.0 mph 20.0 mph 95% 0.10 in RA
06:04 38.2 °F 36.9 °F 29.91 in NNW 2.0 mph 18.0 mph 95% 0.10 in RA
06:19 38.5 °F 37.2 °F 29.90 in East 6.0 mph 13.0 mph 95% 0.03 in RA
06:34 38.9 °F 37.6 °F 29.89 in ENE 5.0 mph 17.0 mph 95% 0.08 in RA
06:49 39.2 °F 37.9 °F 29.87 in ENE 1.0 mph 15.0 mph 95% 0.09 in RA
07:04 39.7 °F 38.4 °F 29.85 in ENE 5.0 mph 16.0 mph 95% 0.04 in RA
07:19 40.0 °F 38.7 °F 29.85 in ENE 3.0 mph 18.0 mph 95% 0.03 in RA
07:34 40.3 °F 39.0 °F 29.83 in ESE 3.0 mph 22.0 mph 95% 0.02 in RA
07:49 40.7 °F 39.4 °F 29.81 in East 2.0 mph 20.0 mph 95% 0.03 in RA
08:04 40.9 °F 39.6 °F 29.79 in ENE 3.0 mph 18.0 mph 95% 0.08 in RA
08:19 41.1 °F 39.8 °F 29.80 in East 5.0 mph 17.0 mph 95% 0.07 in RA
08:34 41.4 °F 40.1 °F 29.75 in NW 2.0 mph 14.0 mph 95% 0.10 in RA
08:49 41.7 °F 40.4 °F 29.74 in NNE 3.0 mph 20.0 mph 95% 0.13 in RA
09:04 41.9 °F 40.6 °F 29.73 in ENE 2.0 mph 16.0 mph 95% 0.12 in -RA
09:19 42.0 °F 40.7 °F 29.77 in East 3.0 mph 18.0 mph 95% 0.19 in -RA
09:34 42.1 °F 40.8 °F 29.75 in NNE 2.0 mph 12.0 mph 95% 0.22 in -RA
09:49 42.2 °F 40.9 °F 29.75 in ESE 2.0 mph 20.0 mph 95% 0.27 in -RA
10:04 42.6 °F 41.5 °F 29.72 in NNE 3.0 mph 15.0 mph 96% 0.23 in RA
10:19 42.9 °F 41.9 °F 29.69 in WSW 1.0 mph 9.0 mph 96% 0.17 in RA
10:34 43.8 °F 42.7 °F 29.69 in NNW 1.0 mph 7.0 mph 96% 0.20 in -RA
10:49 44.4 °F 43.3 °F 29.67 in NE 2.0 mph 8.0 mph 96% 0.16 in -RA
11:04 45.3 °F 44.5 °F 29.69 in SSW 1.0 mph 5.0 mph 97% 0.19 in +RA
11:19 46.6 °F 45.8 °F 29.65 in Calm   4.0 mph 97% 0.16 in +RA
11:34 47.2 °F 46.4 °F 29.63 in NNW 1.0 mph 5.0 mph 97% 0.13 in +RA
11:49 47.0 °F 45.9 °F 29.59 in ENE 1.0 mph 10.0 mph 96% 0.02 in +RA
12:04 48.1 °F 47.3 °F 29.57 in ENE 3.0 mph 7.0 mph 97% 0.01 in -RA
12:19 49.9 °F 49.1 °F 29.57 in NE 3.0 mph 8.0 mph 97% 0.03 in -RA
12:34 51.2 °F 50.4 °F 29.60 in SW 2.0 mph 12.0 mph 97% 0.00 in -RA
12:49 51.9 °F 51.1 °F 29.58 in NE 1.0 mph 6.0 mph 97% 0.00 in -RA
13:04 54.8 °F 54.2 °F 29.57 in West 2.0 mph 7.0 mph 98% 0.01 in +RA
13:19 57.5 °F 56.9 °F 29.56 in SSW 5.0 mph 14.0 mph 98% 0.00 in -RA
13:34 58.4 °F 55.5 °F 29.55 in SSE 3.0 mph 20.0 mph 90% 0.00 in -RA
13:49 57.4 °F 53.9 °F 29.54 in South 3.0 mph 14.0 mph 88% 0.00 in BKN
14:04 55.8 °F 52.9 °F 29.53 in SSE 3.0 mph 17.0 mph 90% 0.00 in -RA
14:19 55.3 °F 52.4 °F 29.52 in SSE 6.0 mph 15.0 mph 90% 0.00 in -RA
14:34 54.8 °F 51.6 °F 29.53 in SSE 6.0 mph 21.0 mph 89% 0.00 in -RA
14:49 54.5 °F 51.0 °F 29.52 in SSW 2.0 mph 17.0 mph 88% 0.00 in -RA
15:04 54.9 °F 51.1 °F 29.51 in SW 3.0 mph 14.0 mph 87% 0.00 in OVC
15:19 55.9 °F 50.8 °F 29.50 in SSE 5.0 mph 14.0 mph 83% 0.00 in OVC
15:34 55.8 °F 50.1 °F 29.49 in SW 5.0 mph 15.0 mph 81% 0.00 in OVC
15:49 56.5 °F 49.8 °F 29.48 in SE 2.0 mph 13.0 mph 78% 0.00 in OVC
16:04 57.3 °F 49.4 °F 29.46 in SE 2.0 mph 12.0 mph 75% 0.00 in SCT
16:19 57.3 °F 48.7 °F 29.46 in South 3.0 mph 17.0 mph 73% 0.00 in SCT
16:34 56.9 °F 49.1 °F 29.45 in SSE 2.0 mph 14.0 mph 75% 0.00 in SCT
16:49 56.6 °F 48.8 °F 29.45 in South 5.0 mph 14.0 mph 75% 0.00 in SCT
17:04 55.0 °F 47.6 °F 29.44 in SSW 3.0 mph 12.0 mph 76% 0.00 in BKN
17:19 54.2 °F 47.2 °F 29.44 in SSE 5.0 mph 15.0 mph 77% 0.00 in BKN
17:34 53.7 °F 47.0 °F 29.44 in SSW 5.0 mph 14.0 mph 78% 0.00 in BKN
17:49 52.8 °F 47.1 °F 29.44 in SSE 1.0 mph 10.0 mph 81% 0.00 in BKN
18:04 52.5 °F 47.1 °F 29.44 in SW 2.0 mph 8.0 mph 82% 0.00 in BKN
18:19 52.2 °F 47.2 °F 29.45 in South 2.0 mph 9.0 mph 83% 0.00 in BKN
18:34 52.3 °F 47.3 °F 29.46 in South 3.0 mph 9.0 mph 83% 0.00 in BKN
18:49 52.4 °F 47.7 °F 29.46 in South 2.0 mph 7.0 mph 84% 0.00 in BKN
19:04 53.3 °F 48.6 °F 29.47 in SSW 3.0 mph 12.0 mph 84% 0.00 in BKN
19:19 53.8 °F 48.8 °F 29.47 in SSW 2.0 mph 12.0 mph 83% 0.00 in BKN
19:34 53.2 °F 47.5 °F 29.48 in SSW 7.0 mph 15.0 mph 81% 0.00 in BKN
19:49 52.2 °F 46.5 °F 29.49 in SW 7.0 mph 14.0 mph 81% 0.00 in BKN
20:04 51.3 °F 46.0 °F 29.50 in SW 5.0 mph 20.0 mph 82% 0.00 in BKN
20:19 50.2 °F 44.3 °F 29.51 in SW 6.0 mph 16.0 mph 80% 0.00 in BKN
20:34 49.6 °F 43.3 °F 29.52 in SW 7.0 mph 15.0 mph 79% 0.00 in BKN
20:49 49.2 °F 43.0 °F 29.54 in SW 9.0 mph 17.0 mph 79% 0.00 in BKN
21:04 48.8 °F 42.6 °F 29.55 in WSW 8.0 mph 16.0 mph 79% 0.00 in BKN
21:19 48.0 °F 41.5 °F 29.56 in SW 8.0 mph 20.0 mph 78% 0.00 in BKN
21:34 47.2 °F 40.4 °F 29.57 in WSW 6.0 mph 17.0 mph 77% 0.00 in BKN
21:49 46.6 °F 39.4 °F 29.58 in WSW 6.0 mph 20.0 mph 76% 0.00 in BKN
22:04 46.2 °F 39.1 °F 29.58 in WSW 8.0 mph 15.0 mph 76% 0.00 in BKN
22:19 45.8 °F 39.0 °F 29.58 in WSW 3.0 mph 16.0 mph 77% 0.00 in BKN
22:34 45.2 °F 38.4 °F 29.59 in WSW 2.0 mph 12.0 mph 77% 0.00 in BKN
22:49 44.9 °F 38.5 °F 29.59 in SW 6.0 mph 14.0 mph 78% 0.00 in BKN
23:04 44.7 °F 38.2 °F 29.59 in SW 3.0 mph 12.0 mph 78% 0.00 in FEW
23:19 44.5 °F 38.1 °F 29.59 in South 2.0 mph 12.0 mph 78% 0.00 in FEW
23:34 44.4 °F 38.0 °F 29.59 in WSW 1.0 mph 8.0 mph 78% 0.00 in FEW
23:49 44.5 °F 38.4 °F 29.60 in SW 2.0 mph 8.0 mph 79% 0.00 in FEW
TarryTown NY Weather
Compliments of Weather Underground - 1.5 mb